<?xml version="1.0" encoding="UTF-8"?>
<gpx  version="1.1"  creator="Verlag Esterbauer" xmlns:xsi="http://www.w3.org/2001/XMLSchema-instance" xmlns="http://www.topografix.com/GPX/1/1"  xsi:schemaLocation="http://www.topografix.com/GPX/1/1 http://www.topografix.com/GPX/1/1/gpx.xsd">
    <trk>
        <name>drw4#02_1</name>
        <desc>by Verlag Esterbauer</desc>
        <trkseg>
            <trkpt lon="18.70296362" lat="45.99770862">
                <ele>84</ele>
                <time>2012-09-28T12:10:35.640+02:00</time>
            </trkpt>
            <trkpt lon="18.70233612" lat="45.99755139">
                <ele>86</ele>
                <time>2012-09-28T12:10:52.640+02:00</time>
            </trkpt>
            <trkpt lon="18.70053389" lat="45.99681862">
                <ele>85</ele>
                <time>2012-09-28T12:11:41.640+02:00</time>
            </trkpt>
            <trkpt lon="18.69786834" lat="45.99548778">
                <ele>84</ele>
                <time>2012-09-28T12:12:55.640+02:00</time>
            </trkpt>
            <trkpt lon="18.69823889" lat="45.99565917">
                <ele>84</ele>
                <time>2012-09-28T12:12:55.640+02:00</time>
            </trkpt>
            <trkpt lon="18.69419223" lat="45.99322889">
                <ele>88</ele>
                <time>2080-10-16T15:27:02.640+02:00</time>
            </trkpt>
            <trkpt lon="18.69446445" lat="45.99321306">
                <ele>88</ele>
                <time>2080-10-16T15:27:09.640+02:00</time>
            </trkpt>
            <trkpt lon="18.69381778" lat="45.99273528">
                <ele>88</ele>
                <time>2080-10-16T15:27:28.640+02:00</time>
            </trkpt>
            <trkpt lon="18.69381778" lat="45.99273528">
                <ele>88</ele>
                <time>2080-10-16T15:27:28.640+02:00</time>
            </trkpt>
            <trkpt lon="18.69418000" lat="45.99204612">
                <ele>90</ele>
                <time>2080-10-16T15:27:44.640+02:00</time>
            </trkpt>
            <trkpt lon="18.69561639" lat="45.99087501">
                <ele>88</ele>
                <time>2080-10-16T15:28:27.640+02:00</time>
            </trkpt>
            <trkpt lon="18.69669889" lat="45.99020084">
                <ele>85</ele>
                <time>2080-10-16T15:28:58.640+02:00</time>
            </trkpt>
            <trkpt lon="18.69652834" lat="45.99031306">
                <ele>87</ele>
                <time>2080-10-16T15:29:03.640+02:00</time>
            </trkpt>
            <trkpt lon="18.69817167" lat="45.98817889">
                <ele>87</ele>
                <time>2080-10-16T15:30:01.640+02:00</time>
            </trkpt>
            <trkpt lon="18.69922612" lat="45.98684556">
                <ele>86</ele>
                <time>2080-10-16T15:30:38.640+02:00</time>
            </trkpt>
            <trkpt lon="18.70034723" lat="45.98524250">
                <ele>85</ele>
                <time>2080-10-16T15:31:19.640+02:00</time>
            </trkpt>
            <trkpt lon="18.70087223" lat="45.98463389">
                <ele>84</ele>
                <time>2080-10-16T15:31:36.640+02:00</time>
            </trkpt>
            <trkpt lon="18.70158612" lat="45.98348723">
                <ele>84</ele>
                <time>2080-10-16T15:32:04.640+02:00</time>
            </trkpt>
            <trkpt lon="18.70309056" lat="45.98200806">
                <ele>84</ele>
                <time>2080-10-16T15:32:52.640+02:00</time>
            </trkpt>
            <trkpt lon="18.70350139" lat="45.98147445">
                <ele>84</ele>
                <time>2080-10-16T15:33:06.640+02:00</time>
            </trkpt>
            <trkpt lon="18.70353028" lat="45.98077834">
                <ele>83</ele>
                <time>2080-10-16T15:33:18.640+02:00</time>
            </trkpt>
            <trkpt lon="18.70551195" lat="45.97849612">
                <ele>84</ele>
                <time>2080-10-16T15:34:25.640+02:00</time>
            </trkpt>
            <trkpt lon="18.70574334" lat="45.97826862">
                <ele>84</ele>
                <time>2080-10-16T15:34:36.640+02:00</time>
            </trkpt>
            <trkpt lon="18.70694834" lat="45.97732528">
                <ele>84</ele>
                <time>2080-10-16T15:35:32.640+02:00</time>
            </trkpt>
            <trkpt lon="18.71160778" lat="45.97470945">
                <ele>85</ele>
                <time>2080-10-16T15:38:58.640+02:00</time>
            </trkpt>
            <trkpt lon="18.71587112" lat="45.97227917">
                <ele>84</ele>
                <time>2080-10-16T15:42:07.640+02:00</time>
            </trkpt>
            <trkpt lon="18.71734001" lat="45.97165056">
                <ele>84</ele>
                <time>2080-10-16T15:43:10.640+02:00</time>
            </trkpt>
            <trkpt lon="18.71925417" lat="45.97099195">
                <ele>85</ele>
                <time>2080-10-16T15:44:31.640+02:00</time>
            </trkpt>
            <trkpt lon="18.72120362" lat="45.96948278">
                <ele>85</ele>
                <time>2080-10-16T15:46:02.640+02:00</time>
            </trkpt>
            <trkpt lon="18.72384945" lat="45.96856806">
                <ele>84</ele>
                <time>2080-10-16T15:47:54.640+02:00</time>
            </trkpt>
            <trkpt lon="18.72745584" lat="45.96589195">
                <ele>84</ele>
                <time>2080-10-16T15:50:41.640+02:00</time>
            </trkpt>
            <trkpt lon="18.73030251" lat="45.96277501">
                <ele>83</ele>
                <time>2080-10-16T15:53:08.640+02:00</time>
            </trkpt>
            <trkpt lon="18.73193445" lat="45.96222667">
                <ele>83</ele>
                <time>2080-10-16T15:54:17.640+02:00</time>
            </trkpt>
            <trkpt lon="18.73296084" lat="45.96155056">
                <ele>82</ele>
                <time>2080-10-16T15:55:03.640+02:00</time>
            </trkpt>
            <trkpt lon="18.73301750" lat="45.96015834">
                <ele>81</ele>
                <time>2080-10-16T15:55:42.640+02:00</time>
            </trkpt>
            <trkpt lon="18.73299223" lat="45.95942251">
                <ele>84</ele>
                <time>2080-10-16T15:56:04.640+02:00</time>
            </trkpt>
            <trkpt lon="18.73239334" lat="45.95778501">
                <ele>84</ele>
                <time>2080-10-16T15:56:57.640+02:00</time>
            </trkpt>
            <trkpt lon="18.73161528" lat="45.95645362">
                <ele>84</ele>
                <time>2080-10-16T15:57:46.640+02:00</time>
            </trkpt>
            <trkpt lon="18.73116056" lat="45.95536112">
                <ele>84</ele>
                <time>2080-10-16T15:58:22.640+02:00</time>
            </trkpt>
            <trkpt lon="18.73110362" lat="45.95539862">
                <ele>84</ele>
                <time>2080-10-16T15:58:23.640+02:00</time>
            </trkpt>
            <trkpt lon="18.72900445" lat="45.95516334">
                <ele>83</ele>
                <time>2080-10-16T15:59:18.640+02:00</time>
            </trkpt>
            <trkpt lon="18.72623723" lat="45.95499223">
                <ele>83</ele>
                <time>2080-10-16T16:00:31.640+02:00</time>
            </trkpt>
            <trkpt lon="18.72550667" lat="45.95520973">
                <ele>81</ele>
                <time>2080-10-16T16:00:50.640+02:00</time>
            </trkpt>
            <trkpt lon="18.72157639" lat="45.95497667">
                <ele>83</ele>
                <time>2080-10-16T16:02:34.640+02:00</time>
            </trkpt>
            <trkpt lon="18.71531945" lat="45.95465834">
                <ele>85</ele>
                <time>2080-10-16T16:05:20.640+02:00</time>
            </trkpt>
            <trkpt lon="18.71531945" lat="45.95465834">
                <ele>85</ele>
                <time>2080-10-16T16:05:20.640+02:00</time>
            </trkpt>
            <trkpt lon="18.71493584" lat="45.95383556">
                <ele>83</ele>
                <time>2080-10-16T16:05:38.640+02:00</time>
            </trkpt>
            <trkpt lon="18.71421389" lat="45.95274445">
                <ele>84</ele>
                <time>2080-10-16T16:06:05.640+02:00</time>
            </trkpt>
            <trkpt lon="18.71300223" lat="45.95163167">
                <ele>84</ele>
                <time>2080-10-16T16:06:43.640+02:00</time>
            </trkpt>
            <trkpt lon="18.71012139" lat="45.95018084">
                <ele>85</ele>
                <time>2080-10-16T16:08:04.640+02:00</time>
            </trkpt>
            <trkpt lon="18.70684806" lat="45.94883778">
                <ele>86</ele>
                <time>2080-10-16T16:09:34.640+02:00</time>
            </trkpt>
            <trkpt lon="18.70356612" lat="45.94768834">
                <ele>84</ele>
                <time>2080-10-16T16:11:03.640+02:00</time>
            </trkpt>
            <trkpt lon="18.70257500" lat="45.94751334">
                <ele>84</ele>
                <time>2080-10-16T16:11:29.640+02:00</time>
            </trkpt>
            <trkpt lon="18.69807500" lat="45.94765500">
                <ele>85</ele>
                <time>2080-10-16T16:13:28.640+02:00</time>
            </trkpt>
            <trkpt lon="18.69290195" lat="45.94797639">
                <ele>84</ele>
                <time>2080-10-16T16:15:45.640+02:00</time>
            </trkpt>
            <trkpt lon="18.69117667" lat="45.94809639">
                <ele>84</ele>
                <time>2080-10-16T16:16:30.640+02:00</time>
            </trkpt>
            <trkpt lon="18.68464889" lat="45.94897056">
                <ele>86</ele>
                <time>2080-10-16T16:19:24.640+02:00</time>
            </trkpt>
            <trkpt lon="18.67582528" lat="45.95033945">
                <ele>86</ele>
                <time>2080-10-16T16:23:19.640+02:00</time>
            </trkpt>
            <trkpt lon="18.66772362" lat="45.95168362">
                <ele>86</ele>
                <time>2080-10-16T16:26:55.640+02:00</time>
            </trkpt>
            <trkpt lon="18.66744473" lat="45.95171667">
                <ele>86</ele>
                <time>2080-10-16T16:27:02.640+02:00</time>
            </trkpt>
            <trkpt lon="18.66539250" lat="45.94509528">
                <ele>87</ele>
                <time>2080-10-16T16:29:15.640+02:00</time>
            </trkpt>
            <trkpt lon="18.66539250" lat="45.94509528">
                <ele>87</ele>
                <time>2080-10-16T16:29:15.640+02:00</time>
            </trkpt>
            <trkpt lon="18.66224806" lat="45.93543250">
                <ele>89</ele>
                <time>2080-10-16T16:32:32.640+02:00</time>
            </trkpt>
            <trkpt lon="18.66032612" lat="45.92970389">
                <ele>84</ele>
                <time>2080-10-16T16:34:29.640+02:00</time>
            </trkpt>
            <trkpt lon="18.65977001" lat="45.92841528">
                <ele>88</ele>
                <time>2080-10-16T16:34:57.640+02:00</time>
            </trkpt>
            <trkpt lon="18.65954306" lat="45.92457917">
                <ele>88</ele>
                <time>2080-10-16T16:36:07.640+02:00</time>
            </trkpt>
            <trkpt lon="18.65948889" lat="45.91532778">
                <ele>85</ele>
                <time>2080-10-16T16:38:57.640+02:00</time>
            </trkpt>
            <trkpt lon="18.65947028" lat="45.90785778">
                <ele>87</ele>
                <time>2080-10-16T16:41:15.640+02:00</time>
            </trkpt>
            <trkpt lon="18.66004362" lat="45.90477334">
                <ele>86</ele>
                <time>2080-10-16T16:42:13.640+02:00</time>
            </trkpt>
            <trkpt lon="18.66036584" lat="45.90106445">
                <ele>88</ele>
                <time>2080-10-16T16:43:22.640+02:00</time>
            </trkpt>
            <trkpt lon="18.66036584" lat="45.90106445">
                <ele>88</ele>
                <time>2080-10-16T16:43:22.640+02:00</time>
            </trkpt>
            <trkpt lon="18.66118139" lat="45.89616584">
                <ele>88</ele>
                <time>2080-10-16T16:44:54.640+02:00</time>
            </trkpt>
            <trkpt lon="18.66121389" lat="45.89539223">
                <ele>87</ele>
                <time>2080-10-16T16:45:08.640+02:00</time>
            </trkpt>
            <trkpt lon="18.66109945" lat="45.89504889">
                <ele>87</ele>
                <time>2080-10-16T16:45:15.640+02:00</time>
            </trkpt>
            <trkpt lon="18.66052612" lat="45.88629500">
                <ele>85</ele>
                <time>2080-10-16T16:47:57.640+02:00</time>
            </trkpt>
            <trkpt lon="18.66103445" lat="45.88625473">
                <ele>85</ele>
                <time>2080-10-16T16:48:10.640+02:00</time>
            </trkpt>
            <trkpt lon="18.67124723" lat="45.88600862">
                <ele>85</ele>
                <time>2080-10-16T16:52:40.640+02:00</time>
            </trkpt>
            <trkpt lon="18.67950834" lat="45.88572195">
                <ele>86</ele>
                <time>2080-10-16T16:56:19.640+02:00</time>
            </trkpt>
            <trkpt lon="18.68370334" lat="45.88575667">
                <ele>87</ele>
                <time>2080-10-16T16:58:10.640+02:00</time>
            </trkpt>
            <trkpt lon="18.68514334" lat="45.88593750">
                <ele>85</ele>
                <time>2080-10-16T16:58:48.640+02:00</time>
            </trkpt>
            <trkpt lon="18.68826362" lat="45.88746612">
                <ele>84</ele>
                <time>2080-10-16T17:00:15.640+02:00</time>
            </trkpt>
            <trkpt lon="18.68826362" lat="45.88746612">
                <ele>84</ele>
                <time>2080-10-16T17:00:15.640+02:00</time>
            </trkpt>
            <trkpt lon="18.68926445" lat="45.88602084">
                <ele>85</ele>
                <time>2080-10-16T17:00:52.640+02:00</time>
            </trkpt>
            <trkpt lon="18.69241778" lat="45.88116889">
                <ele>87</ele>
                <time>2080-10-16T17:02:54.640+02:00</time>
            </trkpt>
            <trkpt lon="18.69674167" lat="45.87500417">
                <ele>85</ele>
                <time>2080-10-16T17:05:35.640+02:00</time>
            </trkpt>
            <trkpt lon="18.70098223" lat="45.86921195">
                <ele>88</ele>
                <time>2080-10-16T17:08:10.640+02:00</time>
            </trkpt>
            <trkpt lon="18.70314084" lat="45.86921056">
                <ele>87</ele>
                <time>2080-10-16T17:09:07.640+02:00</time>
            </trkpt>
            <trkpt lon="18.70683473" lat="45.86895945">
                <ele>87</ele>
                <time>2080-10-16T17:10:44.640+02:00</time>
            </trkpt>
            <trkpt lon="18.70938750" lat="45.86894584">
                <ele>85</ele>
                <time>2080-10-16T17:11:51.640+02:00</time>
            </trkpt>
            <trkpt lon="18.71083723" lat="45.86922778">
                <ele>83</ele>
                <time>2080-10-16T17:12:29.640+02:00</time>
            </trkpt>
            <trkpt lon="18.72171250" lat="45.86684362">
                <ele>87</ele>
                <time>2080-10-16T17:17:21.640+02:00</time>
            </trkpt>
            <trkpt lon="18.73334556" lat="45.86415139">
                <ele>89</ele>
                <time>2080-10-16T17:22:33.640+02:00</time>
            </trkpt>
            <trkpt lon="18.73334417" lat="45.86415917">
                <ele>89</ele>
                <time>2080-10-16T17:22:33.640+02:00</time>
            </trkpt>
            <trkpt lon="18.74262445" lat="45.86201945">
                <ele>85</ele>
                <time>2080-10-16T17:26:42.640+02:00</time>
            </trkpt>
            <trkpt lon="18.74621084" lat="45.86119501">
                <ele>84</ele>
                <time>2080-10-16T17:28:18.640+02:00</time>
            </trkpt>
            <trkpt lon="18.74824862" lat="45.86094639">
                <ele>85</ele>
                <time>2080-10-16T17:29:12.640+02:00</time>
            </trkpt>
            <trkpt lon="18.75088834" lat="45.86062806">
                <ele>86</ele>
                <time>2080-10-16T17:30:22.640+02:00</time>
            </trkpt>
            <trkpt lon="18.75451501" lat="45.86037445">
                <ele>85</ele>
                <time>2080-10-16T17:31:58.640+02:00</time>
            </trkpt>
            <trkpt lon="18.75753028" lat="45.85999084">
                <ele>84</ele>
                <time>2080-10-16T17:33:18.640+02:00</time>
            </trkpt>
            <trkpt lon="18.75906834" lat="45.85937612">
                <ele>85</ele>
                <time>2080-10-16T17:34:00.640+02:00</time>
            </trkpt>
            <trkpt lon="18.76207751" lat="45.85755139">
                <ele>86</ele>
                <time>2080-10-16T17:35:26.640+02:00</time>
            </trkpt>
            <trkpt lon="18.76347389" lat="45.85592334">
                <ele>81</ele>
                <time>2080-10-16T17:36:13.640+02:00</time>
            </trkpt>
            <trkpt lon="18.76458695" lat="45.85484778">
                <ele>85</ele>
                <time>2080-10-16T17:36:49.640+02:00</time>
            </trkpt>
            <trkpt lon="18.76694445" lat="45.85254695">
                <ele>84</ele>
                <time>2080-10-16T17:38:04.640+02:00</time>
            </trkpt>
            <trkpt lon="18.76832167" lat="45.85130445">
                <ele>84</ele>
                <time>2080-10-16T17:38:47.640+02:00</time>
            </trkpt>
            <trkpt lon="18.76978334" lat="45.84868695">
                <ele>84</ele>
                <time>2080-10-16T17:39:48.640+02:00</time>
            </trkpt>
            <trkpt lon="18.77146778" lat="45.84373945">
                <ele>83</ele>
                <time>2080-10-16T17:41:29.640+02:00</time>
            </trkpt>
            <trkpt lon="18.77198723" lat="45.84180306">
                <ele>85</ele>
                <time>2080-10-16T17:42:07.640+02:00</time>
            </trkpt>
            <trkpt lon="18.77236945" lat="45.84027195">
                <ele>84</ele>
                <time>2080-10-16T17:42:37.640+02:00</time>
            </trkpt>
            <trkpt lon="18.77296834" lat="45.83932389">
                <ele>85</ele>
                <time>2080-10-16T17:43:00.640+02:00</time>
            </trkpt>
            <trkpt lon="18.77296834" lat="45.83932389">
                <ele>85</ele>
                <time>2080-10-16T17:43:00.640+02:00</time>
            </trkpt>
            <trkpt lon="18.77356639" lat="45.83883001">
                <ele>86</ele>
                <time>2080-10-16T17:43:18.640+02:00</time>
            </trkpt>
            <trkpt lon="18.77602889" lat="45.83872639">
                <ele>85</ele>
                <time>2080-10-16T17:44:23.640+02:00</time>
            </trkpt>
            <trkpt lon="18.77754778" lat="45.83870556">
                <ele>84</ele>
                <time>2080-10-16T17:45:03.640+02:00</time>
            </trkpt>
            <trkpt lon="18.77942612" lat="45.83851389">
                <ele>82</ele>
                <time>2080-10-16T17:45:52.640+02:00</time>
            </trkpt>
            <trkpt lon="18.78102973" lat="45.83840945">
                <ele>83</ele>
                <time>2080-10-16T17:46:34.640+02:00</time>
            </trkpt>
            <trkpt lon="18.78243334" lat="45.83867695">
                <ele>82</ele>
                <time>2080-10-16T17:47:11.640+02:00</time>
            </trkpt>
            <trkpt lon="18.78460612" lat="45.84011389">
                <ele>82</ele>
                <time>2080-10-16T17:48:14.640+02:00</time>
            </trkpt>
            <trkpt lon="18.78546362" lat="45.83940945">
                <ele>82</ele>
                <time>2080-10-16T17:48:40.640+02:00</time>
            </trkpt>
            <trkpt lon="18.78657389" lat="45.83898195">
                <ele>82</ele>
                <time>2080-10-16T17:49:10.640+02:00</time>
            </trkpt>
            <trkpt lon="18.78709945" lat="45.83848667">
                <ele>82</ele>
                <time>2080-10-16T17:49:26.640+02:00</time>
            </trkpt>
            <trkpt lon="18.78934306" lat="45.83661001">
                <ele>84</ele>
                <time>2080-10-16T17:50:35.640+02:00</time>
            </trkpt>
            <trkpt lon="18.79042306" lat="45.83628528">
                <ele>84</ele>
                <time>2080-10-16T17:51:04.640+02:00</time>
            </trkpt>
            <trkpt lon="18.79152139" lat="45.83548973">
                <ele>82</ele>
                <time>2080-10-16T17:51:36.640+02:00</time>
            </trkpt>
            <trkpt lon="18.79284445" lat="45.83391889">
                <ele>115</ele>
                <time>2080-10-16T17:52:29.640+02:00</time>
            </trkpt>
            <trkpt lon="18.79270806" lat="45.83426112">
                <ele>92</ele>
                <time>2080-10-16T17:52:36.640+02:00</time>
            </trkpt>
            <trkpt lon="18.79550723" lat="45.83506334">
                <ele>88</ele>
                <time>2080-10-16T17:53:51.640+02:00</time>
            </trkpt>
            <trkpt lon="18.79795195" lat="45.83489084">
                <ele>95</ele>
                <time>2080-10-16T17:54:57.640+02:00</time>
            </trkpt>
            <trkpt lon="18.79978362" lat="45.83356195">
                <ele>99</ele>
                <time>2080-10-16T17:55:52.640+02:00</time>
            </trkpt>
            <trkpt lon="18.80166084" lat="45.83218056">
                <ele>114</ele>
                <time>2080-10-16T17:56:51.640+02:00</time>
            </trkpt>
            <trkpt lon="18.80384334" lat="45.83127334">
                <ele>130</ele>
                <time>2080-10-16T17:57:55.640+02:00</time>
            </trkpt>
            <trkpt lon="18.80587139" lat="45.83120528">
                <ele>146</ele>
                <time>2080-10-16T17:58:52.640+02:00</time>
            </trkpt>
            <trkpt lon="18.80863862" lat="45.83127945">
                <ele>155</ele>
                <time>2080-10-16T18:00:07.640+02:00</time>
            </trkpt>
            <trkpt lon="18.81138612" lat="45.83104973">
                <ele>151</ele>
                <time>2080-10-16T18:01:19.640+02:00</time>
            </trkpt>
            <trkpt lon="18.81456750" lat="45.83021723">
                <ele>153</ele>
                <time>2080-10-16T18:02:45.640+02:00</time>
            </trkpt>
            <trkpt lon="18.81779834" lat="45.83070084">
                <ele>152</ele>
                <time>2080-10-16T18:04:11.640+02:00</time>
            </trkpt>
            <trkpt lon="18.81996612" lat="45.83104556">
                <ele>152</ele>
                <time>2080-10-16T18:05:08.640+02:00</time>
            </trkpt>
            <trkpt lon="18.82273945" lat="45.83154917">
                <ele>153</ele>
                <time>2080-10-16T18:06:22.640+02:00</time>
            </trkpt>
            <trkpt lon="18.82539250" lat="45.83107056">
                <ele>151</ele>
                <time>2080-10-16T18:07:32.640+02:00</time>
            </trkpt>
            <trkpt lon="18.82537389" lat="45.83145223">
                <ele>151</ele>
                <time>2080-10-16T18:07:39.640+02:00</time>
            </trkpt>
            <trkpt lon="18.82913945" lat="45.83406751">
                <ele>152</ele>
                <time>2080-10-16T18:09:30.640+02:00</time>
            </trkpt>
            <trkpt lon="18.83550528" lat="45.83761723">
                <ele>150</ele>
                <time>2080-10-16T18:12:30.640+02:00</time>
            </trkpt>
            <trkpt lon="18.83685500" lat="45.83867695">
                <ele>146</ele>
                <time>2080-10-16T18:13:10.640+02:00</time>
            </trkpt>
            <trkpt lon="18.83823084" lat="45.83958195">
                <ele>147</ele>
                <time>2080-10-16T18:13:50.640+02:00</time>
            </trkpt>
            <trkpt lon="18.84102778" lat="45.83953973">
                <ele>128</ele>
                <time>2080-10-16T18:15:04.640+02:00</time>
            </trkpt>
            <trkpt lon="18.84588723" lat="45.84198334">
                <ele>85</ele>
                <time>2080-10-16T18:17:20.640+02:00</time>
            </trkpt>
            <trkpt lon="18.84623223" lat="45.84172917">
                <ele>85</ele>
                <time>2080-10-16T18:17:30.640+02:00</time>
            </trkpt>
            <trkpt lon="18.84370723" lat="45.83799278">
                <ele>81</ele>
                <time>2080-10-16T18:19:06.640+02:00</time>
            </trkpt>
            <trkpt lon="18.84223278" lat="45.83596806">
                <ele>84</ele>
                <time>2080-10-16T18:20:00.640+02:00</time>
            </trkpt>
            <trkpt lon="18.84119445" lat="45.83462862">
                <ele>83</ele>
                <time>2080-10-16T18:20:36.640+02:00</time>
            </trkpt>
            <trkpt lon="18.84007612" lat="45.83333584">
                <ele>87</ele>
                <time>2080-10-16T18:21:15.640+02:00</time>
            </trkpt>
            <trkpt lon="18.83938250" lat="45.83183500">
                <ele>83</ele>
                <time>2080-10-16T18:21:48.640+02:00</time>
            </trkpt>
            <trkpt lon="18.83685139" lat="45.82894334">
                <ele>80</ele>
                <time>2080-10-16T18:23:13.640+02:00</time>
            </trkpt>
            <trkpt lon="18.83414723" lat="45.82598945">
                <ele>86</ele>
                <time>2080-10-16T18:24:44.640+02:00</time>
            </trkpt>
            <trkpt lon="18.83259806" lat="45.82485639">
                <ele>84</ele>
                <time>2080-10-16T18:25:30.640+02:00</time>
            </trkpt>
            <trkpt lon="18.83102112" lat="45.82265334">
                <ele>84</ele>
                <time>2080-10-16T18:26:28.640+02:00</time>
            </trkpt>
            <trkpt lon="18.82990695" lat="45.82157112">
                <ele>89</ele>
                <time>2080-10-16T18:27:04.640+02:00</time>
            </trkpt>
            <trkpt lon="18.82913028" lat="45.82110139">
                <ele>106</ele>
                <time>2080-10-16T18:27:30.640+02:00</time>
            </trkpt>
            <trkpt lon="18.82771584" lat="45.81844695">
                <ele>88</ele>
                <time>2080-10-16T18:28:31.640+02:00</time>
            </trkpt>
            <trkpt lon="18.82654112" lat="45.81706000">
                <ele>92</ele>
                <time>2080-10-16T18:29:12.640+02:00</time>
            </trkpt>
            <trkpt lon="18.82023667" lat="45.81193723">
                <ele>87</ele>
                <time>2080-10-16T18:32:24.640+02:00</time>
            </trkpt>
            <trkpt lon="18.81743306" lat="45.80971084">
                <ele>97</ele>
                <time>2080-10-16T18:33:51.640+02:00</time>
            </trkpt>
            <trkpt lon="18.81709195" lat="45.80919889">
                <ele>97</ele>
                <time>2080-10-16T18:34:04.640+02:00</time>
            </trkpt>
            <trkpt lon="18.81694806" lat="45.80919612">
                <ele>97</ele>
                <time>2080-10-16T18:34:07.640+02:00</time>
            </trkpt>
            <trkpt lon="18.81565667" lat="45.80718639">
                <ele>83</ele>
                <time>2080-10-16T18:34:57.640+02:00</time>
            </trkpt>
            <trkpt lon="18.81540723" lat="45.80595667">
                <ele>81</ele>
                <time>2080-10-16T18:35:20.640+02:00</time>
            </trkpt>
            <trkpt lon="18.81504862" lat="45.80374084">
                <ele>80</ele>
                <time>2080-10-16T18:36:02.640+02:00</time>
            </trkpt>
            <trkpt lon="18.81437306" lat="45.80298195">
                <ele>80</ele>
                <time>2080-10-16T18:36:24.640+02:00</time>
            </trkpt>
            <trkpt lon="18.81309112" lat="45.80250251">
                <ele>80</ele>
                <time>2080-10-16T18:36:59.640+02:00</time>
            </trkpt>
            <trkpt lon="18.80900973" lat="45.80156500">
                <ele>84</ele>
                <time>2080-10-16T18:38:49.640+02:00</time>
            </trkpt>
            <trkpt lon="18.80918139" lat="45.80171723">
                <ele>83</ele>
                <time>2080-10-16T18:38:54.640+02:00</time>
            </trkpt>
            <trkpt lon="18.80817112" lat="45.80084167">
                <ele>86</ele>
                <time>2080-10-16T18:39:25.640+02:00</time>
            </trkpt>
            <trkpt lon="18.80618362" lat="45.79994445">
                <ele>85</ele>
                <time>2080-10-16T18:40:20.640+02:00</time>
            </trkpt>
            <trkpt lon="18.80519056" lat="45.79947056">
                <ele>88</ele>
                <time>2080-10-16T18:40:48.640+02:00</time>
            </trkpt>
            <trkpt lon="18.80338306" lat="45.79766695">
                <ele>84</ele>
                <time>2080-10-16T18:41:46.640+02:00</time>
            </trkpt>
            <trkpt lon="18.80154778" lat="45.79657056">
                <ele>85</ele>
                <time>2080-10-16T18:42:38.640+02:00</time>
            </trkpt>
            <trkpt lon="18.79745028" lat="45.79421751">
                <ele>96</ele>
                <time>2080-10-16T18:44:37.640+02:00</time>
            </trkpt>
            <trkpt lon="18.79545501" lat="45.79352223">
                <ele>97</ele>
                <time>2080-10-16T18:45:31.640+02:00</time>
            </trkpt>
            <trkpt lon="18.79370028" lat="45.79222501">
                <ele>85</ele>
                <time>2080-10-16T18:46:23.640+02:00</time>
            </trkpt>
            <trkpt lon="18.79185778" lat="45.79133028">
                <ele>84</ele>
                <time>2080-10-16T18:47:14.640+02:00</time>
            </trkpt>
            <trkpt lon="18.79079084" lat="45.79090556">
                <ele>93</ele>
                <time>2080-10-16T18:47:45.640+02:00</time>
            </trkpt>
            <trkpt lon="18.78958389" lat="45.79037667">
                <ele>87</ele>
                <time>2080-10-16T18:48:18.640+02:00</time>
            </trkpt>
            <trkpt lon="18.78866556" lat="45.78985362">
                <ele>82</ele>
                <time>2080-10-16T18:48:44.640+02:00</time>
            </trkpt>
            <trkpt lon="18.78831445" lat="45.78959417">
                <ele>88</ele>
                <time>2080-10-16T18:48:55.640+02:00</time>
            </trkpt>
            <trkpt lon="18.78690695" lat="45.78865723">
                <ele>84</ele>
                <time>2080-10-16T18:49:36.640+02:00</time>
            </trkpt>
            <trkpt lon="18.78338195" lat="45.78646639">
                <ele>83</ele>
                <time>2080-10-16T18:51:17.640+02:00</time>
            </trkpt>
            <trkpt lon="18.78020084" lat="45.78473723">
                <ele>85</ele>
                <time>2080-10-16T18:52:47.640+02:00</time>
            </trkpt>
            <trkpt lon="18.77955917" lat="45.78452251">
                <ele>90</ele>
                <time>2080-10-16T18:53:05.640+02:00</time>
            </trkpt>
            <trkpt lon="18.77871917" lat="45.78384917">
                <ele>89</ele>
                <time>2080-10-16T18:53:30.640+02:00</time>
            </trkpt>
            <trkpt lon="18.77838639" lat="45.78313528">
                <ele>82</ele>
                <time>2080-10-16T18:53:45.640+02:00</time>
            </trkpt>
            <trkpt lon="18.77563806" lat="45.78177278">
                <ele>90</ele>
                <time>2080-10-16T18:55:03.640+02:00</time>
            </trkpt>
            <trkpt lon="18.77563806" lat="45.78177278">
                <ele>90</ele>
                <time>2080-10-16T18:55:03.640+02:00</time>
            </trkpt>
            <trkpt lon="18.77434695" lat="45.78118695">
                <ele>91</ele>
                <time>2080-10-16T18:55:39.640+02:00</time>
            </trkpt>
            <trkpt lon="18.77240889" lat="45.77907723">
                <ele>84</ele>
                <time>2080-10-16T18:56:43.640+02:00</time>
            </trkpt>
            <trkpt lon="18.76962695" lat="45.77639528">
                <ele>83</ele>
                <time>2080-10-16T18:58:11.640+02:00</time>
            </trkpt>
            <trkpt lon="18.76849862" lat="45.77571612">
                <ele>83</ele>
                <time>2080-10-16T18:58:43.640+02:00</time>
            </trkpt>
            <trkpt lon="18.76683501" lat="45.77521445">
                <ele>90</ele>
                <time>2080-10-16T18:59:29.640+02:00</time>
            </trkpt>
            <trkpt lon="18.76556612" lat="45.77449389">
                <ele>99</ele>
                <time>2080-10-16T19:00:07.640+02:00</time>
            </trkpt>
            <trkpt lon="18.76447612" lat="45.77336362">
                <ele>101</ele>
                <time>2080-10-16T19:00:43.640+02:00</time>
            </trkpt>
            <trkpt lon="18.76275306" lat="45.77130834">
                <ele>97</ele>
                <time>2080-10-16T19:01:42.640+02:00</time>
            </trkpt>
            <trkpt lon="18.76109612" lat="45.76940612">
                <ele>95</ele>
                <time>2080-10-16T19:02:38.640+02:00</time>
            </trkpt>
            <trkpt lon="18.75977389" lat="45.76816750">
                <ele>95</ele>
                <time>2080-10-16T19:03:19.640+02:00</time>
            </trkpt>
            <trkpt lon="18.75756778" lat="45.76736612">
                <ele>99</ele>
                <time>2080-10-16T19:04:20.640+02:00</time>
            </trkpt>
            <trkpt lon="18.75688862" lat="45.76629167">
                <ele>99</ele>
                <time>2080-10-16T19:04:46.640+02:00</time>
            </trkpt>
            <trkpt lon="18.75540889" lat="45.76358417">
                <ele>91</ele>
                <time>2080-10-16T19:05:49.640+02:00</time>
            </trkpt>
            <trkpt lon="18.75406667" lat="45.76285028">
                <ele>91</ele>
                <time>2080-10-16T19:06:27.640+02:00</time>
            </trkpt>
            <trkpt lon="18.75319584" lat="45.76116556">
                <ele>86</ele>
                <time>2080-10-16T19:07:05.640+02:00</time>
            </trkpt>
            <trkpt lon="18.75242251" lat="45.76064500">
                <ele>83</ele>
                <time>2080-10-16T19:07:27.640+02:00</time>
            </trkpt>
            <trkpt lon="18.74850973" lat="45.75920362">
                <ele>84</ele>
                <time>2080-10-16T19:09:14.640+02:00</time>
            </trkpt>
            <trkpt lon="18.74591000" lat="45.75743417">
                <ele>80</ele>
                <time>2080-10-16T19:10:30.640+02:00</time>
            </trkpt>
            <trkpt lon="18.74308945" lat="45.75576139">
                <ele>82</ele>
                <time>2080-10-16T19:11:51.640+02:00</time>
            </trkpt>
            <trkpt lon="18.73747417" lat="45.75180973">
                <ele>88</ele>
                <time>2080-10-16T19:14:38.640+02:00</time>
            </trkpt>
            <trkpt lon="18.73747417" lat="45.75180973">
                <ele>88</ele>
                <time>2080-10-16T19:14:38.640+02:00</time>
            </trkpt>
            <trkpt lon="18.73414139" lat="45.75032862">
                <ele>91</ele>
                <time>2080-10-16T19:16:11.640+02:00</time>
            </trkpt>
            <trkpt lon="18.73302000" lat="45.74949806">
                <ele>92</ele>
                <time>2080-10-16T19:16:44.640+02:00</time>
            </trkpt>
            <trkpt lon="18.72947501" lat="45.74614278">
                <ele>89</ele>
                <time>2080-10-16T19:18:36.640+02:00</time>
            </trkpt>
            <trkpt lon="18.72644112" lat="45.74264612">
                <ele>90</ele>
                <time>2080-10-16T19:20:19.640+02:00</time>
            </trkpt>
            <trkpt lon="18.72700056" lat="45.73952417">
                <ele>87</ele>
                <time>2080-10-16T19:21:18.640+02:00</time>
            </trkpt>
            <trkpt lon="18.72757723" lat="45.73776695">
                <ele>86</ele>
                <time>2080-10-16T19:21:53.640+02:00</time>
            </trkpt>
            <trkpt lon="18.72767806" lat="45.73706167">
                <ele>85</ele>
                <time>2080-10-16T19:22:06.640+02:00</time>
            </trkpt>
            <trkpt lon="18.72869695" lat="45.73466778">
                <ele>87</ele>
                <time>2080-10-16T19:22:58.640+02:00</time>
            </trkpt>
            <trkpt lon="18.72894167" lat="45.73300639">
                <ele>86</ele>
                <time>2080-10-16T19:23:29.640+02:00</time>
            </trkpt>
            <trkpt lon="18.73097362" lat="45.72696973">
                <ele>85</ele>
                <time>2080-10-16T19:25:32.640+02:00</time>
            </trkpt>
            <trkpt lon="18.73288834" lat="45.72057917">
                <ele>82</ele>
                <time>2080-10-16T19:27:40.640+02:00</time>
            </trkpt>
            <trkpt lon="18.73315028" lat="45.71953695">
                <ele>82</ele>
                <time>2080-10-16T19:28:00.640+02:00</time>
            </trkpt>
            <trkpt lon="18.73286167" lat="45.71775945">
                <ele>86</ele>
                <time>2080-10-16T19:28:34.640+02:00</time>
            </trkpt>
            <trkpt lon="18.73267417" lat="45.71078195">
                <ele>82</ele>
                <time>2080-10-16T19:30:43.640+02:00</time>
            </trkpt>
            <trkpt lon="18.73287084" lat="45.70770639">
                <ele>84</ele>
                <time>2080-10-16T19:31:40.640+02:00</time>
            </trkpt>
            <trkpt lon="18.73441973" lat="45.70419695">
                <ele>83</ele>
                <time>2080-10-16T19:32:56.640+02:00</time>
            </trkpt>
            <trkpt lon="18.73881334" lat="45.69897778">
                <ele>85</ele>
                <time>2080-10-16T19:35:27.640+02:00</time>
            </trkpt>
            <trkpt lon="18.74259389" lat="45.69486862">
                <ele>85</ele>
                <time>2080-10-16T19:37:32.640+02:00</time>
            </trkpt>
            <trkpt lon="18.74259389" lat="45.69486862">
                <ele>85</ele>
                <time>2080-10-16T19:37:32.640+02:00</time>
            </trkpt>
            <trkpt lon="18.74394528" lat="45.69331834">
                <ele>84</ele>
                <time>2080-10-16T19:38:17.640+02:00</time>
            </trkpt>
            <trkpt lon="18.74687889" lat="45.69029389">
                <ele>85</ele>
                <time>2080-10-16T19:39:53.640+02:00</time>
            </trkpt>
            <trkpt lon="18.74721000" lat="45.68972862">
                <ele>84</ele>
                <time>2080-10-16T19:40:06.640+02:00</time>
            </trkpt>
            <trkpt lon="18.74744612" lat="45.68873834">
                <ele>83</ele>
                <time>2080-10-16T19:40:25.640+02:00</time>
            </trkpt>
            <trkpt lon="18.74855250" lat="45.68193778">
                <ele>85</ele>
                <time>2080-10-16T19:42:34.640+02:00</time>
            </trkpt>
            <trkpt lon="18.74946167" lat="45.67760417">
                <ele>83</ele>
                <time>2080-10-16T19:43:57.640+02:00</time>
            </trkpt>
            <trkpt lon="18.75113306" lat="45.67410556">
                <ele>84</ele>
                <time>2080-10-16T19:45:15.640+02:00</time>
            </trkpt>
            <trkpt lon="18.75407751" lat="45.67077778">
                <ele>86</ele>
                <time>2080-10-16T19:46:54.640+02:00</time>
            </trkpt>
            <trkpt lon="18.75774862" lat="45.66683139">
                <ele>84</ele>
                <time>2080-10-16T19:48:55.640+02:00</time>
            </trkpt>
            <trkpt lon="18.76097528" lat="45.66591028">
                <ele>87</ele>
                <time>2080-10-16T19:50:22.640+02:00</time>
            </trkpt>
            <trkpt lon="18.76447028" lat="45.66501862">
                <ele>86</ele>
                <time>2080-10-16T19:51:56.640+02:00</time>
            </trkpt>
            <trkpt lon="18.76859334" lat="45.66464445">
                <ele>88</ele>
                <time>2080-10-16T19:53:45.640+02:00</time>
            </trkpt>
            <trkpt lon="18.77186139" lat="45.66412639">
                <ele>88</ele>
                <time>2080-10-16T19:55:12.640+02:00</time>
            </trkpt>
            <trkpt lon="18.77433250" lat="45.66349306">
                <ele>89</ele>
                <time>2080-10-16T19:56:18.640+02:00</time>
            </trkpt>
            <trkpt lon="18.77433250" lat="45.66349306">
                <ele>89</ele>
                <time>2080-10-16T19:56:18.640+02:00</time>
            </trkpt>
            <trkpt lon="18.77794139" lat="45.66154195">
                <ele>87</ele>
                <time>2080-10-16T19:58:00.640+02:00</time>
            </trkpt>
            <trkpt lon="18.77949362" lat="45.66056167">
                <ele>85</ele>
                <time>2080-10-16T19:58:44.640+02:00</time>
            </trkpt>
            <trkpt lon="18.77949556" lat="45.65869473">
                <ele>85</ele>
                <time>2080-10-16T19:59:18.640+02:00</time>
            </trkpt>
            <trkpt lon="18.77832334" lat="45.65735501">
                <ele>86</ele>
                <time>2080-10-16T19:59:57.640+02:00</time>
            </trkpt>
            <trkpt lon="18.77725528" lat="45.65521195">
                <ele>86</ele>
                <time>2080-10-16T20:00:45.640+02:00</time>
            </trkpt>
            <trkpt lon="18.77600695" lat="45.65215556">
                <ele>85</ele>
                <time>2080-10-16T20:01:50.640+02:00</time>
            </trkpt>
            <trkpt lon="18.77364917" lat="45.64619695">
                <ele>81</ele>
                <time>2080-10-16T20:03:56.640+02:00</time>
            </trkpt>
            <trkpt lon="18.77333334" lat="45.64507917">
                <ele>83</ele>
                <time>2080-10-16T20:04:18.640+02:00</time>
            </trkpt>
            <trkpt lon="18.77332751" lat="45.63977278">
                <ele>82</ele>
                <time>2080-10-16T20:05:56.640+02:00</time>
            </trkpt>
            <trkpt lon="18.77311389" lat="45.63607973">
                <ele>83</ele>
                <time>2080-10-16T20:07:04.640+02:00</time>
            </trkpt>
            <trkpt lon="18.77259862" lat="45.63447667">
                <ele>83</ele>
                <time>2080-10-16T20:07:36.640+02:00</time>
            </trkpt>
            <trkpt lon="18.77200028" lat="45.63327862">
                <ele>84</ele>
                <time>2080-10-16T20:08:03.640+02:00</time>
            </trkpt>
            <trkpt lon="18.77110084" lat="45.63053223">
                <ele>86</ele>
                <time>2080-10-16T20:08:59.640+02:00</time>
            </trkpt>
            <trkpt lon="18.77110084" lat="45.63053223">
                <ele>86</ele>
                <time>2080-10-16T20:08:59.640+02:00</time>
            </trkpt>
            <trkpt lon="18.77027723" lat="45.62768612">
                <ele>86</ele>
                <time>2080-10-16T20:09:56.640+02:00</time>
            </trkpt>
            <trkpt lon="18.77042945" lat="45.62384834">
                <ele>81</ele>
                <time>2080-10-16T20:11:07.640+02:00</time>
            </trkpt>
            <trkpt lon="18.76742334" lat="45.61974695">
                <ele>85</ele>
                <time>2080-10-16T20:12:58.640+02:00</time>
            </trkpt>
            <trkpt lon="18.76462500" lat="45.61585223">
                <ele>85</ele>
                <time>2080-10-16T20:14:41.640+02:00</time>
            </trkpt>
            <trkpt lon="18.76303917" lat="45.61365556">
                <ele>86</ele>
                <time>2080-10-16T20:15:39.640+02:00</time>
            </trkpt>
            <trkpt lon="18.76133862" lat="45.61181334">
                <ele>85</ele>
                <time>2080-10-16T20:16:35.640+02:00</time>
            </trkpt>
            <trkpt lon="18.75603778" lat="45.60837389">
                <ele>83</ele>
                <time>2080-10-16T20:19:09.640+02:00</time>
            </trkpt>
            <trkpt lon="18.75651278" lat="45.60853695">
                <ele>83</ele>
                <time>2080-10-16T20:19:21.640+02:00</time>
            </trkpt>
            <trkpt lon="18.75395862" lat="45.60738917">
                <ele>81</ele>
                <time>2080-10-16T20:20:31.640+02:00</time>
            </trkpt>
            <trkpt lon="18.75026862" lat="45.60637500">
                <ele>84</ele>
                <time>2080-10-16T20:22:11.640+02:00</time>
            </trkpt>
            <trkpt lon="18.74774834" lat="45.60572917">
                <ele>85</ele>
                <time>2080-10-16T20:23:19.640+02:00</time>
            </trkpt>
            <trkpt lon="18.74512167" lat="45.60480528">
                <ele>85</ele>
                <time>2080-10-16T20:24:30.640+02:00</time>
            </trkpt>
            <trkpt lon="18.74377723" lat="45.60422278">
                <ele>85</ele>
                <time>2080-10-16T20:25:07.640+02:00</time>
            </trkpt>
            <trkpt lon="18.74306750" lat="45.60395612">
                <ele>84</ele>
                <time>2080-10-16T20:25:26.640+02:00</time>
            </trkpt>
            <trkpt lon="18.74357028" lat="45.60219723">
                <ele>83</ele>
                <time>2080-10-16T20:26:01.640+02:00</time>
            </trkpt>
            <trkpt lon="18.74244445" lat="45.59974945">
                <ele>82</ele>
                <time>2080-10-16T20:26:55.640+02:00</time>
            </trkpt>
            <trkpt lon="18.74194612" lat="45.59781917">
                <ele>84</ele>
                <time>2080-10-16T20:27:33.640+02:00</time>
            </trkpt>
            <trkpt lon="18.74171417" lat="45.59463084">
                <ele>84</ele>
                <time>2080-10-16T20:28:32.640+02:00</time>
            </trkpt>
            <trkpt lon="18.74015195" lat="45.59409473">
                <ele>80</ele>
                <time>2080-10-16T20:29:14.640+02:00</time>
            </trkpt>
            <trkpt lon="18.73994056" lat="45.59398945">
                <ele>83</ele>
                <time>2080-10-16T20:29:20.640+02:00</time>
            </trkpt>
            <trkpt lon="18.73930528" lat="45.59367362">
                <ele>83</ele>
                <time>2080-10-16T20:29:37.640+02:00</time>
            </trkpt>
            <trkpt lon="18.73588056" lat="45.59112945">
                <ele>79</ele>
                <time>2080-10-16T20:31:19.640+02:00</time>
            </trkpt>
            <trkpt lon="18.72835139" lat="45.58506751">
                <ele>80</ele>
                <time>2080-10-16T20:35:08.640+02:00</time>
            </trkpt>
            <trkpt lon="18.71594639" lat="45.57506667">
                <ele>79</ele>
                <time>2080-10-16T20:41:25.640+02:00</time>
            </trkpt>
            <trkpt lon="18.70737834" lat="45.56812334">
                <ele>82</ele>
                <time>2080-10-16T20:45:46.640+02:00</time>
            </trkpt>
            <trkpt lon="18.70325806" lat="45.56505889">
                <ele>82</ele>
                <time>2080-10-16T20:47:49.640+02:00</time>
            </trkpt>
            <trkpt lon="18.70218806" lat="45.56306639">
                <ele>79</ele>
                <time>2080-10-16T20:48:35.640+02:00</time>
            </trkpt>
            <trkpt lon="18.70067695" lat="45.56131778">
                <ele>87</ele>
                <time>2080-10-16T20:49:28.640+02:00</time>
            </trkpt>
            <trkpt lon="18.69818834" lat="45.55884195">
                <ele>88</ele>
                <time>2080-10-16T20:50:48.640+02:00</time>
            </trkpt>
            <trkpt lon="18.69876723" lat="45.55875278">
                <ele>90</ele>
                <time>2080-10-16T20:51:03.640+02:00</time>
            </trkpt>
            <trkpt lon="18.70328112" lat="45.55919723">
                <ele>86</ele>
                <time>2080-10-16T20:53:02.640+02:00</time>
            </trkpt>
            <trkpt lon="18.70335084" lat="45.55924917">
                <ele>87</ele>
                <time>2080-10-16T20:53:04.640+02:00</time>
            </trkpt>
            <trkpt lon="18.70429167" lat="45.55911639">
                <ele>88</ele>
                <time>2080-10-16T20:53:29.640+02:00</time>
            </trkpt>
            <trkpt lon="18.70422778" lat="45.55891306">
                <ele>88</ele>
                <time>2080-10-16T20:53:33.640+02:00</time>
            </trkpt>
            <trkpt lon="18.71120223" lat="45.55723389">
                <ele>89</ele>
                <time>2080-10-16T20:56:40.640+02:00</time>
            </trkpt>
            <trkpt lon="18.72238750" lat="45.55457695">
                <ele>87</ele>
                <time>2080-10-16T21:01:40.640+02:00</time>
            </trkpt>
            <trkpt lon="18.72609389" lat="45.55364001">
                <ele>86</ele>
                <time>2080-10-16T21:03:19.640+02:00</time>
            </trkpt>
            <trkpt lon="18.72994195" lat="45.55275667">
                <ele>86</ele>
                <time>2080-10-16T21:05:02.640+02:00</time>
            </trkpt>
            <trkpt lon="18.73383223" lat="45.55081250">
                <ele>86</ele>
                <time>2080-10-16T21:06:51.640+02:00</time>
            </trkpt>
            <trkpt lon="18.73405806" lat="45.55056417">
                <ele>86</ele>
                <time>2080-10-16T21:06:58.640+02:00</time>
            </trkpt>
            <trkpt lon="18.74317195" lat="45.54569112">
                <ele>86</ele>
                <time>2080-10-16T21:11:15.640+02:00</time>
            </trkpt>
            <trkpt lon="18.75618612" lat="45.54215751">
                <ele>85</ele>
                <time>2080-10-16T21:17:06.640+02:00</time>
            </trkpt>
            <trkpt lon="18.76585806" lat="45.53946667">
                <ele>86</ele>
                <time>2080-10-16T21:21:27.640+02:00</time>
            </trkpt>
            <trkpt lon="18.76606750" lat="45.53962251">
                <ele>86</ele>
                <time>2080-10-16T21:21:33.640+02:00</time>
            </trkpt>
            <trkpt lon="18.77065028" lat="45.54011639">
                <ele>87</ele>
                <time>2080-10-16T21:23:35.640+02:00</time>
            </trkpt>
            <trkpt lon="18.77538028" lat="45.53972139">
                <ele>85</ele>
                <time>2080-10-16T21:25:40.640+02:00</time>
            </trkpt>
            <trkpt lon="18.78207639" lat="45.53900862">
                <ele>87</ele>
                <time>2080-10-16T21:28:38.640+02:00</time>
            </trkpt>
            <trkpt lon="18.78636084" lat="45.53852778">
                <ele>87</ele>
                <time>2080-10-16T21:30:31.640+02:00</time>
            </trkpt>
            <trkpt lon="18.79118750" lat="45.53905001">
                <ele>87</ele>
                <time>2080-10-16T21:32:39.640+02:00</time>
            </trkpt>
            <trkpt lon="18.79447306" lat="45.53961889">
                <ele>89</ele>
                <time>2080-10-16T21:34:07.640+02:00</time>
            </trkpt>
            <trkpt lon="18.79955834" lat="45.53830195">
                <ele>87</ele>
                <time>2080-10-16T21:36:23.640+02:00</time>
            </trkpt>
            <trkpt lon="18.80167112" lat="45.53796473">
                <ele>90</ele>
                <time>2080-10-16T21:37:20.640+02:00</time>
            </trkpt>
            <trkpt lon="18.80667528" lat="45.53666195">
                <ele>88</ele>
                <time>2080-10-16T21:39:34.640+02:00</time>
            </trkpt>
            <trkpt lon="18.81003889" lat="45.53552751">
                <ele>87</ele>
                <time>2080-10-16T21:41:05.640+02:00</time>
            </trkpt>
            <trkpt lon="18.81144167" lat="45.53465112">
                <ele>86</ele>
                <time>2080-10-16T21:41:45.640+02:00</time>
            </trkpt>
            <trkpt lon="18.81149584" lat="45.53458973">
                <ele>86</ele>
                <time>2080-10-16T21:41:46.640+02:00</time>
            </trkpt>
            <trkpt lon="18.81416028" lat="45.53448917">
                <ele>85</ele>
                <time>2080-10-16T21:42:56.640+02:00</time>
            </trkpt>
            <trkpt lon="18.81925223" lat="45.53296917">
                <ele>85</ele>
                <time>2080-10-16T21:45:13.640+02:00</time>
            </trkpt>
            <trkpt lon="18.82486473" lat="45.53100445">
                <ele>87</ele>
                <time>2080-10-16T21:47:46.640+02:00</time>
            </trkpt>
            <trkpt lon="18.83068445" lat="45.52924528">
                <ele>89</ele>
                <time>2080-10-16T21:50:24.640+02:00</time>
            </trkpt>
            <trkpt lon="18.83377195" lat="45.52823278">
                <ele>91</ele>
                <time>2080-10-16T21:51:48.640+02:00</time>
            </trkpt>
            <trkpt lon="18.83377195" lat="45.52823278">
                <ele>91</ele>
                <time>2080-10-16T21:51:48.640+02:00</time>
            </trkpt>
            <trkpt lon="18.83791195" lat="45.52640084">
                <ele>90</ele>
                <time>2080-10-16T21:53:42.640+02:00</time>
            </trkpt>
            <trkpt lon="18.84370889" lat="45.52332667">
                <ele>87</ele>
                <time>2080-10-16T21:56:25.640+02:00</time>
            </trkpt>
            <trkpt lon="18.84855251" lat="45.52073973">
                <ele>88</ele>
                <time>2080-10-16T21:58:42.640+02:00</time>
            </trkpt>
            <trkpt lon="18.84993251" lat="45.52036139">
                <ele>89</ele>
                <time>2080-10-16T21:59:19.640+02:00</time>
            </trkpt>
            <trkpt lon="18.85952362" lat="45.51958139">
                <ele>86</ele>
                <time>2080-10-16T22:03:33.640+02:00</time>
            </trkpt>
            <trkpt lon="18.86276556" lat="45.51938945">
                <ele>90</ele>
                <time>2080-10-16T22:04:59.640+02:00</time>
            </trkpt>
            <trkpt lon="18.86977751" lat="45.51835806">
                <ele>90</ele>
                <time>2080-10-16T22:08:05.640+02:00</time>
            </trkpt>
            <trkpt lon="18.87160028" lat="45.51804639">
                <ele>92</ele>
                <time>2080-10-16T22:08:54.640+02:00</time>
            </trkpt>
            <trkpt lon="18.87160028" lat="45.51804639">
                <ele>92</ele>
                <time>2080-10-16T22:08:54.640+02:00</time>
            </trkpt>
            <trkpt lon="18.87816917" lat="45.51694778">
                <ele>88</ele>
                <time>2080-10-16T22:11:49.640+02:00</time>
            </trkpt>
            <trkpt lon="18.88336417" lat="45.51643778">
                <ele>85</ele>
                <time>2080-10-16T22:14:06.640+02:00</time>
            </trkpt>
            <trkpt lon="18.88595556" lat="45.51633417">
                <ele>86</ele>
                <time>2080-10-16T22:15:14.640+02:00</time>
            </trkpt>
            <trkpt lon="18.88717112" lat="45.51650834">
                <ele>87</ele>
                <time>2080-10-16T22:15:46.640+02:00</time>
            </trkpt>
            <trkpt lon="18.89116362" lat="45.51739056">
                <ele>86</ele>
                <time>2080-10-16T22:17:33.640+02:00</time>
            </trkpt>
            <trkpt lon="18.89625278" lat="45.51778778">
                <ele>87</ele>
                <time>2080-10-16T22:19:48.640+02:00</time>
            </trkpt>
            <trkpt lon="18.89982751" lat="45.51830834">
                <ele>89</ele>
                <time>2080-10-16T22:21:23.640+02:00</time>
            </trkpt>
            <trkpt lon="18.90356501" lat="45.51832639">
                <ele>109</ele>
                <time>2080-10-16T22:23:06.640+02:00</time>
            </trkpt>
            <trkpt lon="18.90889195" lat="45.51812112">
                <ele>116</ele>
                <time>2080-10-16T22:25:28.640+02:00</time>
            </trkpt>
            <trkpt lon="18.91566334" lat="45.51773945">
                <ele>120</ele>
                <time>2080-10-16T22:28:28.640+02:00</time>
            </trkpt>
            <trkpt lon="18.92879806" lat="45.51241945">
                <ele>113</ele>
                <time>2080-10-16T22:34:29.640+02:00</time>
            </trkpt>
            <trkpt lon="18.94214917" lat="45.50700112">
                <ele>109</ele>
                <time>2080-10-16T22:40:36.640+02:00</time>
            </trkpt>
            <trkpt lon="18.94616167" lat="45.50535501">
                <ele>105</ele>
                <time>2080-10-16T22:42:26.640+02:00</time>
            </trkpt>
            <trkpt lon="18.95602834" lat="45.50280306">
                <ele>99</ele>
                <time>2080-10-16T22:46:51.640+02:00</time>
            </trkpt>
            <trkpt lon="18.95871501" lat="45.50204278">
                <ele>97</ele>
                <time>2080-10-16T22:48:03.640+02:00</time>
            </trkpt>
            <trkpt lon="18.96291695" lat="45.50110695">
                <ele>96</ele>
                <time>2080-10-16T22:49:55.640+02:00</time>
            </trkpt>
            <trkpt lon="18.96309001" lat="45.50095834">
                <ele>96</ele>
                <time>2080-10-16T22:50:00.640+02:00</time>
            </trkpt>
            <trkpt lon="18.96291528" lat="45.50006528">
                <ele>93</ele>
                <time>2080-10-16T22:50:17.640+02:00</time>
            </trkpt>
            <trkpt lon="18.96377417" lat="45.49986334">
                <ele>91</ele>
                <time>2080-10-16T22:50:40.640+02:00</time>
            </trkpt>
            <trkpt lon="18.96482973" lat="45.49959250">
                <ele>92</ele>
                <time>2080-10-16T22:51:08.640+02:00</time>
            </trkpt>
            <trkpt lon="18.96954445" lat="45.49638028">
                <ele>87</ele>
                <time>2080-10-16T22:53:26.640+02:00</time>
            </trkpt>
            <trkpt lon="18.97156500" lat="45.49518834">
                <ele>87</ele>
                <time>2080-10-16T22:54:23.640+02:00</time>
            </trkpt>
            <trkpt lon="18.97342167" lat="45.49394417">
                <ele>84</ele>
                <time>2080-10-16T22:55:17.640+02:00</time>
            </trkpt>
            <trkpt lon="18.97912917" lat="45.48978167">
                <ele>83</ele>
                <time>2080-10-16T22:58:06.640+02:00</time>
            </trkpt>
            <trkpt lon="18.98263417" lat="45.48729001">
                <ele>85</ele>
                <time>2080-10-16T22:59:50.640+02:00</time>
            </trkpt>
            <trkpt lon="18.98480501" lat="45.48574778">
                <ele>83</ele>
                <time>2080-10-16T23:00:54.640+02:00</time>
            </trkpt>
            <trkpt lon="18.98603889" lat="45.48451473">
                <ele>87</ele>
                <time>2080-10-16T23:01:34.640+02:00</time>
            </trkpt>
            <trkpt lon="18.98604028" lat="45.48447834">
                <ele>87</ele>
                <time>2080-10-16T23:01:34.640+02:00</time>
            </trkpt>
            <trkpt lon="18.98430556" lat="45.48349389">
                <ele>84</ele>
                <time>2080-10-16T23:02:23.640+02:00</time>
            </trkpt>
            <trkpt lon="18.97795778" lat="45.48083473">
                <ele>86</ele>
                <time>2080-10-16T23:05:18.640+02:00</time>
            </trkpt>
            <trkpt lon="18.97670473" lat="45.48004028">
                <ele>86</ele>
                <time>2080-10-16T23:05:54.640+02:00</time>
            </trkpt>
            <trkpt lon="18.97631751" lat="45.47905695">
                <ele>84</ele>
                <time>2080-10-16T23:06:14.640+02:00</time>
            </trkpt>
            <trkpt lon="18.97655362" lat="45.47702778">
                <ele>84</ele>
                <time>2080-10-16T23:06:52.640+02:00</time>
            </trkpt>
            <trkpt lon="18.97690001" lat="45.47193806">
                <ele>84</ele>
                <time>2080-10-16T23:08:27.640+02:00</time>
            </trkpt>
            <trkpt lon="18.97721723" lat="45.46395084">
                <ele>83</ele>
                <time>2080-10-16T23:10:55.640+02:00</time>
            </trkpt>
            <trkpt lon="18.97813806" lat="45.44756723">
                <ele>83</ele>
                <time>2080-10-16T23:16:00.640+02:00</time>
            </trkpt>
            <trkpt lon="18.97813834" lat="45.44756695">
                <ele>83</ele>
                <time>2080-10-16T23:16:00.640+02:00</time>
            </trkpt>
            <trkpt lon="18.97826278" lat="45.44362973">
                <ele>85</ele>
                <time>2080-10-16T23:17:13.640+02:00</time>
            </trkpt>
            <trkpt lon="18.97820084" lat="45.44095917">
                <ele>85</ele>
                <time>2080-10-16T23:18:02.640+02:00</time>
            </trkpt>
            <trkpt lon="18.97840834" lat="45.43916584">
                <ele>84</ele>
                <time>2080-10-16T23:18:35.640+02:00</time>
            </trkpt>
            <trkpt lon="18.97858334" lat="45.43775862">
                <ele>85</ele>
                <time>2080-10-16T23:19:01.640+02:00</time>
            </trkpt>
            <trkpt lon="18.97894751" lat="45.43605501">
                <ele>84</ele>
                <time>2080-10-16T23:19:34.640+02:00</time>
            </trkpt>
            <trkpt lon="18.97907445" lat="45.43436973">
                <ele>86</ele>
                <time>2080-10-16T23:20:05.640+02:00</time>
            </trkpt>
            <trkpt lon="18.97925139" lat="45.43123112">
                <ele>85</ele>
                <time>2080-10-16T23:21:03.640+02:00</time>
            </trkpt>
            <trkpt lon="18.97954473" lat="45.42196028">
                <ele>84</ele>
                <time>2080-10-16T23:23:55.640+02:00</time>
            </trkpt>
            <trkpt lon="18.97986112" lat="45.41711445">
                <ele>85</ele>
                <time>2080-10-16T23:25:25.640+02:00</time>
            </trkpt>
            <trkpt lon="18.98007084" lat="45.41421417">
                <ele>85</ele>
                <time>2080-10-16T23:26:19.640+02:00</time>
            </trkpt>
            <trkpt lon="18.98153501" lat="45.41016389">
                <ele>86</ele>
                <time>2080-10-16T23:27:43.640+02:00</time>
            </trkpt>
            <trkpt lon="18.98185306" lat="45.40865362">
                <ele>85</ele>
                <time>2080-10-16T23:28:12.640+02:00</time>
            </trkpt>
            <trkpt lon="18.97720778" lat="45.40099695">
                <ele>87</ele>
                <time>2080-10-16T23:31:20.640+02:00</time>
            </trkpt>
            <trkpt lon="18.97720778" lat="45.40099695">
                <ele>87</ele>
                <time>2080-10-16T23:31:20.640+02:00</time>
            </trkpt>
            <trkpt lon="18.97592306" lat="45.39880112">
                <ele>86</ele>
                <time>2080-10-16T23:32:13.640+02:00</time>
            </trkpt>
            <trkpt lon="18.97442167" lat="45.39665195">
                <ele>88</ele>
                <time>2080-10-16T23:33:09.640+02:00</time>
            </trkpt>
            <trkpt lon="18.97296139" lat="45.39536250">
                <ele>86</ele>
                <time>2080-10-16T23:33:54.640+02:00</time>
            </trkpt>
            <trkpt lon="18.97099778" lat="45.39411473">
                <ele>86</ele>
                <time>2080-10-16T23:34:50.640+02:00</time>
            </trkpt>
            <trkpt lon="18.96925278" lat="45.39276973">
                <ele>87</ele>
                <time>2080-10-16T23:35:42.640+02:00</time>
            </trkpt>
            <trkpt lon="18.96730389" lat="45.39111806">
                <ele>86</ele>
                <time>2080-10-16T23:36:42.640+02:00</time>
            </trkpt>
            <trkpt lon="18.96488556" lat="45.39099973">
                <ele>85</ele>
                <time>2080-10-16T23:37:46.640+02:00</time>
            </trkpt>
            <trkpt lon="18.96228334" lat="45.39094028">
                <ele>85</ele>
                <time>2080-10-16T23:38:54.640+02:00</time>
            </trkpt>
            <trkpt lon="18.96014139" lat="45.39083862">
                <ele>86</ele>
                <time>2080-10-16T23:39:51.640+02:00</time>
            </trkpt>
            <trkpt lon="18.95866973" lat="45.39044556">
                <ele>85</ele>
                <time>2080-10-16T23:40:30.640+02:00</time>
            </trkpt>
            <trkpt lon="18.95731556" lat="45.38765501">
                <ele>86</ele>
                <time>2080-10-16T23:41:33.640+02:00</time>
            </trkpt>
            <trkpt lon="18.95572000" lat="45.38416251">
                <ele>85</ele>
                <time>2080-10-16T23:42:50.640+02:00</time>
            </trkpt>
            <trkpt lon="18.95423806" lat="45.38094806">
                <ele>87</ele>
                <time>2080-10-16T23:44:02.640+02:00</time>
            </trkpt>
            <trkpt lon="18.95262778" lat="45.37645278">
                <ele>86</ele>
                <time>2080-10-16T23:45:35.640+02:00</time>
            </trkpt>
            <trkpt lon="18.95168862" lat="45.37466723">
                <ele>85</ele>
                <time>2080-10-16T23:46:16.640+02:00</time>
            </trkpt>
            <trkpt lon="18.95044056" lat="45.37348278">
                <ele>85</ele>
                <time>2080-10-16T23:46:55.640+02:00</time>
            </trkpt>
            <trkpt lon="18.95037084" lat="45.37343084">
                <ele>85</ele>
                <time>2080-10-16T23:46:57.640+02:00</time>
            </trkpt>
            <trkpt lon="18.95626417" lat="45.37106000">
                <ele>86</ele>
                <time>2080-10-16T23:49:39.640+02:00</time>
            </trkpt>
            <trkpt lon="18.95902501" lat="45.37004834">
                <ele>86</ele>
                <time>2080-10-16T23:50:54.640+02:00</time>
            </trkpt>
            <trkpt lon="18.96113917" lat="45.36907528">
                <ele>78</ele>
                <time>2080-10-16T23:51:52.640+02:00</time>
            </trkpt>
            <trkpt lon="18.96353278" lat="45.36830945">
                <ele>78</ele>
                <time>2080-10-16T23:52:57.640+02:00</time>
            </trkpt>
            <trkpt lon="18.96950306" lat="45.36775889">
                <ele>79</ele>
                <time>2080-10-16T23:55:35.640+02:00</time>
            </trkpt>
            <trkpt lon="18.97396500" lat="45.36728223">
                <ele>79</ele>
                <time>2080-10-16T23:57:33.640+02:00</time>
            </trkpt>
            <trkpt lon="18.98028473" lat="45.36496834">
                <ele>79</ele>
                <time>2080-10-17T00:00:25.640+02:00</time>
            </trkpt>
            <trkpt lon="18.98750500" lat="45.36150778">
                <ele>79</ele>
                <time>2080-10-17T00:03:46.640+02:00</time>
            </trkpt>
            <trkpt lon="18.99027751" lat="45.36014167">
                <ele>82</ele>
                <time>2080-10-17T00:05:04.640+02:00</time>
            </trkpt>
            <trkpt lon="18.99035973" lat="45.35983973">
                <ele>84</ele>
                <time>2080-10-17T00:05:10.640+02:00</time>
            </trkpt>
            <trkpt lon="18.99069973" lat="45.35832973">
                <ele>82</ele>
                <time>2080-10-17T00:05:39.640+02:00</time>
            </trkpt>
            <trkpt lon="18.99370834" lat="45.35636112">
                <ele>88</ele>
                <time>2080-10-17T00:07:08.640+02:00</time>
            </trkpt>
            <trkpt lon="18.99798417" lat="45.35390723">
                <ele>83</ele>
                <time>2080-10-17T00:09:10.640+02:00</time>
            </trkpt>
            <trkpt lon="19.00049473" lat="45.35457389">
                <ele>85</ele>
                <time>2080-10-17T00:10:18.640+02:00</time>
            </trkpt>
            <trkpt lon="19.00021639" lat="45.35475723">
                <ele>85</ele>
                <time>2080-10-17T00:10:26.640+02:00</time>
            </trkpt>
            <trkpt lon="19.00203139" lat="45.35205973">
                <ele>81</ele>
                <time>2080-10-17T00:11:35.640+02:00</time>
            </trkpt>
            <trkpt lon="19.00361917" lat="45.34971251">
                <ele>87</ele>
                <time>2080-10-17T00:12:37.640+02:00</time>
            </trkpt>
            <trkpt lon="19.00376417" lat="45.34966445">
                <ele>87</ele>
                <time>2080-10-17T00:12:40.640+02:00</time>
            </trkpt>
            <trkpt lon="19.00616139" lat="45.34720167">
                <ele>93</ele>
                <time>2080-10-17T00:13:59.640+02:00</time>
            </trkpt>
            <trkpt lon="19.00689112" lat="45.34633306">
                <ele>90</ele>
                <time>2080-10-17T00:14:24.640+02:00</time>
            </trkpt>
            <trkpt lon="19.00867917" lat="45.34439334">
                <ele>95</ele>
                <time>2080-10-17T00:15:24.640+02:00</time>
            </trkpt>
            <trkpt lon="19.01025667" lat="45.34437028">
                <ele>94</ele>
                <time>2080-10-17T00:16:05.640+02:00</time>
            </trkpt>
            <trkpt lon="19.01250362" lat="45.34323917">
                <ele>100</ele>
                <time>2080-10-17T00:17:09.640+02:00</time>
            </trkpt>
            <trkpt lon="19.01701612" lat="45.34100723">
                <ele>103</ele>
                <time>2080-10-17T00:19:16.640+02:00</time>
            </trkpt>
            <trkpt lon="19.02146889" lat="45.33891278">
                <ele>104</ele>
                <time>2080-10-17T00:21:20.640+02:00</time>
            </trkpt>
            <trkpt lon="19.02328501" lat="45.33797862">
                <ele>103</ele>
                <time>2080-10-17T00:22:11.640+02:00</time>
            </trkpt>
            <trkpt lon="19.02760084" lat="45.33592028">
                <ele>101</ele>
                <time>2080-10-17T00:24:11.640+02:00</time>
            </trkpt>
            <trkpt lon="19.03203917" lat="45.33413528">
                <ele>103</ele>
                <time>2080-10-17T00:26:13.640+02:00</time>
            </trkpt>
            <trkpt lon="19.03647028" lat="45.33239223">
                <ele>110</ele>
                <time>2080-10-17T00:28:16.640+02:00</time>
            </trkpt>
            <trkpt lon="19.03601806" lat="45.33257084">
                <ele>104</ele>
                <time>2080-10-17T00:28:28.640+02:00</time>
            </trkpt>
            <trkpt lon="19.03766862" lat="45.33171917">
                <ele>103</ele>
                <time>2080-10-17T00:29:14.640+02:00</time>
            </trkpt>
            <trkpt lon="19.04090056" lat="45.33043139">
                <ele>105</ele>
                <time>2080-10-17T00:30:43.640+02:00</time>
            </trkpt>
            <trkpt lon="19.04300834" lat="45.32983084">
                <ele>105</ele>
                <time>2080-10-17T00:31:39.640+02:00</time>
            </trkpt>
            <trkpt lon="19.04264612" lat="45.32986084">
                <ele>105</ele>
                <time>2080-10-17T00:31:48.640+02:00</time>
            </trkpt>
            <trkpt lon="19.04614139" lat="45.32857417">
                <ele>99</ele>
                <time>2080-10-17T00:33:23.640+02:00</time>
            </trkpt>
            <trkpt lon="19.05059362" lat="45.32863973">
                <ele>104</ele>
                <time>2080-10-17T00:35:22.640+02:00</time>
            </trkpt>
            <trkpt lon="19.05527695" lat="45.32677695">
                <ele>102</ele>
                <time>2080-10-17T00:37:30.640+02:00</time>
            </trkpt>
            <trkpt lon="19.05975945" lat="45.32508417">
                <ele>102</ele>
                <time>2080-10-17T00:39:32.640+02:00</time>
            </trkpt>
            <trkpt lon="19.06305528" lat="45.32372501">
                <ele>102</ele>
                <time>2080-10-17T00:41:02.640+02:00</time>
            </trkpt>
            <trkpt lon="19.06627973" lat="45.32101834">
                <ele>106</ele>
                <time>2080-10-17T00:42:42.640+02:00</time>
            </trkpt>
            <trkpt lon="19.06727584" lat="45.32003889">
                <ele>105</ele>
                <time>2080-10-17T00:43:14.640+02:00</time>
            </trkpt>
            <trkpt lon="19.06850612" lat="45.31906917">
                <ele>108</ele>
                <time>2080-10-17T00:43:51.640+02:00</time>
            </trkpt>
            <trkpt lon="19.07159139" lat="45.31597195">
                <ele>104</ele>
                <time>2080-10-17T00:45:31.640+02:00</time>
            </trkpt>
            <trkpt lon="19.07489695" lat="45.31295306">
                <ele>107</ele>
                <time>2080-10-17T00:47:15.640+02:00</time>
            </trkpt>
            <trkpt lon="19.07901528" lat="45.30951500">
                <ele>107</ele>
                <time>2080-10-17T00:49:21.640+02:00</time>
            </trkpt>
            <trkpt lon="19.08179612" lat="45.30666695">
                <ele>108</ele>
                <time>2080-10-17T00:50:52.640+02:00</time>
            </trkpt>
            <trkpt lon="19.08458917" lat="45.30504223">
                <ele>107</ele>
                <time>2080-10-17T00:52:11.640+02:00</time>
            </trkpt>
            <trkpt lon="19.08774195" lat="45.30285723">
                <ele>109</ele>
                <time>2080-10-17T00:53:44.640+02:00</time>
            </trkpt>
            <trkpt lon="19.09125195" lat="45.30039306">
                <ele>109</ele>
                <time>2080-10-17T00:55:27.640+02:00</time>
            </trkpt>
            <trkpt lon="19.09377306" lat="45.29910639">
                <ele>109</ele>
                <time>2080-10-17T00:56:37.640+02:00</time>
            </trkpt>
            <trkpt lon="19.09626695" lat="45.29609223">
                <ele>111</ele>
                <time>2080-10-17T00:58:04.640+02:00</time>
            </trkpt>
            <trkpt lon="19.09853973" lat="45.29500945">
                <ele>111</ele>
                <time>2080-10-17T00:59:07.640+02:00</time>
            </trkpt>
            <trkpt lon="19.10082389" lat="45.29177306">
                <ele>109</ele>
                <time>2080-10-17T01:00:32.640+02:00</time>
            </trkpt>
            <trkpt lon="19.10353139" lat="45.28850306">
                <ele>108</ele>
                <time>2080-10-17T01:02:06.640+02:00</time>
            </trkpt>
            <trkpt lon="19.10322862" lat="45.28866389">
                <ele>107</ele>
                <time>2080-10-17T01:02:14.640+02:00</time>
            </trkpt>
            <trkpt lon="19.10743834" lat="45.28891973">
                <ele>109</ele>
                <time>2080-10-17T01:04:06.640+02:00</time>
            </trkpt>
            <trkpt lon="19.10954834" lat="45.28909834">
                <ele>108</ele>
                <time>2080-10-17T01:05:02.640+02:00</time>
            </trkpt>
            <trkpt lon="19.11135612" lat="45.28882501">
                <ele>109</ele>
                <time>2080-10-17T01:05:50.640+02:00</time>
            </trkpt>
            <trkpt lon="19.11481973" lat="45.28766500">
                <ele>110</ele>
                <time>2080-10-17T01:07:24.640+02:00</time>
            </trkpt>
            <trkpt lon="19.11832834" lat="45.28608362">
                <ele>111</ele>
                <time>2080-10-17T01:09:01.640+02:00</time>
            </trkpt>
            <trkpt lon="19.12110334" lat="45.28520973">
                <ele>111</ele>
                <time>2080-10-17T01:10:16.640+02:00</time>
            </trkpt>
            <trkpt lon="19.12483806" lat="45.28389639">
                <ele>109</ele>
                <time>2080-10-17T01:11:57.640+02:00</time>
            </trkpt>
            <trkpt lon="19.12615584" lat="45.28300834">
                <ele>112</ele>
                <time>2080-10-17T01:12:36.640+02:00</time>
            </trkpt>
            <trkpt lon="19.13162778" lat="45.27830084">
                <ele>109</ele>
                <time>2080-10-17T01:15:25.640+02:00</time>
            </trkpt>
            <trkpt lon="19.13538250" lat="45.27451751">
                <ele>110</ele>
                <time>2080-10-17T01:17:27.640+02:00</time>
            </trkpt>
            <trkpt lon="19.14380612" lat="45.27081389">
                <ele>111</ele>
                <time>2080-10-17T01:21:20.640+02:00</time>
            </trkpt>
            <trkpt lon="19.15932028" lat="45.26469750">
                <ele>114</ele>
                <time>2080-10-17T01:28:27.640+02:00</time>
            </trkpt>
            <trkpt lon="19.16547834" lat="45.26237084">
                <ele>108</ele>
                <time>2080-10-17T01:31:15.640+02:00</time>
            </trkpt>
            <trkpt lon="19.16672500" lat="45.26143056">
                <ele>97</ele>
                <time>2080-10-17T01:31:52.640+02:00</time>
            </trkpt>
            <trkpt lon="19.16874056" lat="45.26105862">
                <ele>93</ele>
                <time>2080-10-17T01:32:45.640+02:00</time>
            </trkpt>
            <trkpt lon="19.16952751" lat="45.26107112">
                <ele>92</ele>
                <time>2080-10-17T01:33:05.640+02:00</time>
            </trkpt>
            <trkpt lon="19.17042001" lat="45.26224778">
                <ele>93</ele>
                <time>2080-10-17T01:33:37.640+02:00</time>
            </trkpt>
            <trkpt lon="19.17076139" lat="45.26275862">
                <ele>93</ele>
                <time>2080-10-17T01:33:50.640+02:00</time>
            </trkpt>
            <trkpt lon="19.17161806" lat="45.26282306">
                <ele>84</ele>
                <time>2080-10-17T01:34:12.640+02:00</time>
            </trkpt>
            <trkpt lon="19.17140667" lat="45.26271834">
                <ele>84</ele>
                <time>2080-10-17T01:34:17.640+02:00</time>
            </trkpt>
            <trkpt lon="19.17183584" lat="45.26272528">
                <ele>83</ele>
                <time>2080-10-17T01:34:28.640+02:00</time>
            </trkpt>
            <trkpt lon="19.17377667" lat="45.26022945">
                <ele>92</ele>
                <time>2080-10-17T01:35:39.640+02:00</time>
            </trkpt>
            <trkpt lon="19.17423973" lat="45.25917556">
                <ele>106</ele>
                <time>2080-10-17T01:36:05.640+02:00</time>
            </trkpt>
            <trkpt lon="19.17475334" lat="45.25877973">
                <ele>91</ele>
                <time>2080-10-17T01:36:20.640+02:00</time>
            </trkpt>
            <trkpt lon="19.17569612" lat="45.25839028">
                <ele>103</ele>
                <time>2080-10-17T01:36:48.640+02:00</time>
            </trkpt>
            <trkpt lon="19.18483528" lat="45.25676723">
                <ele>114</ele>
                <time>2080-10-17T01:40:54.640+02:00</time>
            </trkpt>
            <trkpt lon="19.19045389" lat="45.25559306">
                <ele>114</ele>
                <time>2080-10-17T01:43:24.640+02:00</time>
            </trkpt>
            <trkpt lon="19.19853084" lat="45.25359806">
                <ele>116</ele>
                <time>2080-10-17T01:47:01.640+02:00</time>
            </trkpt>
            <trkpt lon="19.20177612" lat="45.25279000">
                <ele>116</ele>
                <time>2080-10-17T01:48:28.640+02:00</time>
            </trkpt>
            <trkpt lon="19.20647556" lat="45.25124667">
                <ele>116</ele>
                <time>2080-10-17T01:50:35.640+02:00</time>
            </trkpt>
            <trkpt lon="19.20842528" lat="45.25067112">
                <ele>117</ele>
                <time>2080-10-17T01:51:28.640+02:00</time>
            </trkpt>
            <trkpt lon="19.21122750" lat="45.25028612">
                <ele>114</ele>
                <time>2080-10-17T01:52:42.640+02:00</time>
            </trkpt>
            <trkpt lon="19.21198112" lat="45.25024751">
                <ele>115</ele>
                <time>2080-10-17T01:53:02.640+02:00</time>
            </trkpt>
            <trkpt lon="19.21537528" lat="45.25146278">
                <ele>108</ele>
                <time>2080-10-17T01:54:34.640+02:00</time>
            </trkpt>
            <trkpt lon="19.21619806" lat="45.25150028">
                <ele>96</ele>
                <time>2080-10-17T01:54:55.640+02:00</time>
            </trkpt>
            <trkpt lon="19.21700501" lat="45.25085584">
                <ele>84</ele>
                <time>2080-10-17T01:55:19.640+02:00</time>
            </trkpt>
            <trkpt lon="19.21744528" lat="45.25050889">
                <ele>82</ele>
                <time>2080-10-17T01:55:32.640+02:00</time>
            </trkpt>
            <trkpt lon="19.21744528" lat="45.25050889">
                <ele>82</ele>
                <time>2080-10-17T01:55:32.640+02:00</time>
            </trkpt>
            <trkpt lon="19.21886139" lat="45.25025389">
                <ele>89</ele>
                <time>2080-10-17T01:56:11.640+02:00</time>
            </trkpt>
            <trkpt lon="19.22033028" lat="45.24930862">
                <ele>104</ele>
                <time>2080-10-17T01:56:57.640+02:00</time>
            </trkpt>
            <trkpt lon="19.22326556" lat="45.24797167">
                <ele>117</ele>
                <time>2080-10-17T01:58:21.640+02:00</time>
            </trkpt>
            <trkpt lon="19.22498223" lat="45.24642167">
                <ele>117</ele>
                <time>2080-10-17T01:59:14.640+02:00</time>
            </trkpt>
            <trkpt lon="19.24231528" lat="45.23982667">
                <ele>121</ele>
                <time>2080-10-17T02:07:10.640+02:00</time>
            </trkpt>
            <trkpt lon="19.24738834" lat="45.23768112">
                <ele>120</ele>
                <time>2080-10-17T02:09:30.640+02:00</time>
            </trkpt>
            <trkpt lon="19.25116778" lat="45.23629973">
                <ele>120</ele>
                <time>2080-10-17T02:11:13.640+02:00</time>
            </trkpt>
            <trkpt lon="19.25527000" lat="45.23531056">
                <ele>121</ele>
                <time>2080-10-17T02:13:03.640+02:00</time>
            </trkpt>
            <trkpt lon="19.25953417" lat="45.23449889">
                <ele>121</ele>
                <time>2080-10-17T02:14:57.640+02:00</time>
            </trkpt>
            <trkpt lon="19.26409917" lat="45.23425917">
                <ele>123</ele>
                <time>2080-10-17T02:16:58.640+02:00</time>
            </trkpt>
            <trkpt lon="19.27035195" lat="45.23354695">
                <ele>124</ele>
                <time>2080-10-17T02:19:44.640+02:00</time>
            </trkpt>
            <trkpt lon="19.27405028" lat="45.23358334">
                <ele>121</ele>
                <time>2080-10-17T02:21:22.640+02:00</time>
            </trkpt>
            <trkpt lon="19.27762417" lat="45.23260084">
                <ele>122</ele>
                <time>2080-10-17T02:22:58.640+02:00</time>
            </trkpt>
            <trkpt lon="19.27930389" lat="45.23240584">
                <ele>109</ele>
                <time>2080-10-17T02:23:42.640+02:00</time>
            </trkpt>
            <trkpt lon="19.28111639" lat="45.23417473">
                <ele>94</ele>
                <time>2080-10-17T02:24:40.640+02:00</time>
            </trkpt>
            <trkpt lon="19.28111639" lat="45.23417473">
                <ele>94</ele>
                <time>2080-10-17T02:24:40.640+02:00</time>
            </trkpt>
            <trkpt lon="19.28368001" lat="45.23348334">
                <ele>89</ele>
                <time>2080-10-17T02:25:49.640+02:00</time>
            </trkpt>
            <trkpt lon="19.28557000" lat="45.23344001">
                <ele>83</ele>
                <time>2080-10-17T02:26:39.640+02:00</time>
            </trkpt>
            <trkpt lon="19.28941695" lat="45.23268945">
                <ele>95</ele>
                <time>2080-10-17T02:28:24.640+02:00</time>
            </trkpt>
            <trkpt lon="19.29180834" lat="45.23266001">
                <ele>104</ele>
                <time>2080-10-17T02:29:29.640+02:00</time>
            </trkpt>
            <trkpt lon="19.29448806" lat="45.23269667">
                <ele>97</ele>
                <time>2080-10-17T02:30:40.640+02:00</time>
            </trkpt>
            <trkpt lon="19.29701695" lat="45.23260612">
                <ele>90</ele>
                <time>2080-10-17T02:31:47.640+02:00</time>
            </trkpt>
            <trkpt lon="19.29959195" lat="45.23094028">
                <ele>93</ele>
                <time>2080-10-17T02:33:02.640+02:00</time>
            </trkpt>
            <trkpt lon="19.30260306" lat="45.22928250">
                <ele>113</ele>
                <time>2080-10-17T02:34:32.640+02:00</time>
            </trkpt>
            <trkpt lon="19.30606362" lat="45.22853417">
                <ele>126</ele>
                <time>2080-10-17T02:36:07.640+02:00</time>
            </trkpt>
            <trkpt lon="19.31386028" lat="45.22973695">
                <ele>126</ele>
                <time>2080-10-17T02:39:34.640+02:00</time>
            </trkpt>
            <trkpt lon="19.32043334" lat="45.23050751">
                <ele>125</ele>
                <time>2080-10-17T02:42:28.640+02:00</time>
            </trkpt>
            <trkpt lon="19.32619973" lat="45.22953056">
                <ele>125</ele>
                <time>2080-10-17T02:45:01.640+02:00</time>
            </trkpt>
            <trkpt lon="19.33029528" lat="45.22780500">
                <ele>126</ele>
                <time>2080-10-17T02:46:54.640+02:00</time>
            </trkpt>
            <trkpt lon="19.33238445" lat="45.22728001">
                <ele>124</ele>
                <time>2080-10-17T02:47:50.640+02:00</time>
            </trkpt>
            <trkpt lon="19.33530889" lat="45.22717862">
                <ele>119</ele>
                <time>2080-10-17T02:49:07.640+02:00</time>
            </trkpt>
            <trkpt lon="19.33693501" lat="45.22751667">
                <ele>108</ele>
                <time>2080-10-17T02:49:50.640+02:00</time>
            </trkpt>
            <trkpt lon="19.33907306" lat="45.22725195">
                <ele>104</ele>
                <time>2080-10-17T02:50:46.640+02:00</time>
            </trkpt>
            <trkpt lon="19.34068056" lat="45.22482334">
                <ele>88</ele>
                <time>2080-10-17T02:51:48.640+02:00</time>
            </trkpt>
            <trkpt lon="19.34278667" lat="45.22416889">
                <ele>96</ele>
                <time>2080-10-17T02:52:47.640+02:00</time>
            </trkpt>
            <trkpt lon="19.34396751" lat="45.22317084">
                <ele>98</ele>
                <time>2080-10-17T02:53:23.640+02:00</time>
            </trkpt>
            <trkpt lon="19.34539000" lat="45.22252917">
                <ele>112</ele>
                <time>2080-10-17T02:54:05.640+02:00</time>
            </trkpt>
            <trkpt lon="19.34708334" lat="45.22164556">
                <ele>127</ele>
                <time>2080-10-17T02:54:56.640+02:00</time>
            </trkpt>
            <trkpt lon="19.35364139" lat="45.22282334">
                <ele>131</ele>
                <time>2080-10-17T02:57:52.640+02:00</time>
            </trkpt>
            <trkpt lon="19.35889417" lat="45.22381306">
                <ele>130</ele>
                <time>2080-10-17T03:00:12.640+02:00</time>
            </trkpt>
            <trkpt lon="19.36194445" lat="45.22427528">
                <ele>128</ele>
                <time>2080-10-17T03:01:33.640+02:00</time>
            </trkpt>
            <trkpt lon="19.37039917" lat="45.22345806">
                <ele>132</ele>
                <time>2080-10-17T03:05:18.640+02:00</time>
            </trkpt>
            <trkpt lon="19.37021001" lat="45.22353445">
                <ele>132</ele>
                <time>2080-10-17T03:05:23.640+02:00</time>
            </trkpt>
            <trkpt lon="19.37333417" lat="45.22271806">
                <ele>112</ele>
                <time>2080-10-17T03:06:47.640+02:00</time>
            </trkpt>
            <trkpt lon="19.37785584" lat="45.22272139">
                <ele>94</ele>
                <time>2080-10-17T03:08:46.640+02:00</time>
            </trkpt>
            <trkpt lon="19.38002862" lat="45.22489112">
                <ele>85</ele>
                <time>2080-10-17T03:09:56.640+02:00</time>
            </trkpt>
            <trkpt lon="19.38079250" lat="45.22518306">
                <ele>85</ele>
                <time>2080-10-17T03:10:16.640+02:00</time>
            </trkpt>
            <trkpt lon="19.38235139" lat="45.22529806">
                <ele>85</ele>
                <time>2080-10-17T03:10:57.640+02:00</time>
            </trkpt>
            <trkpt lon="19.38365306" lat="45.22503139">
                <ele>85</ele>
                <time>2080-10-17T03:11:31.640+02:00</time>
            </trkpt>
            <trkpt lon="19.38524750" lat="45.22509056">
                <ele>84</ele>
                <time>2080-10-17T03:12:13.640+02:00</time>
            </trkpt>
            <trkpt lon="19.38779195" lat="45.22432612">
                <ele>85</ele>
                <time>2080-10-17T03:13:22.640+02:00</time>
            </trkpt>
            <trkpt lon="19.39223612" lat="45.22434000">
                <ele>84</ele>
                <time>2080-10-17T03:15:19.640+02:00</time>
            </trkpt>
            <trkpt lon="19.39562334" lat="45.22401973">
                <ele>83</ele>
                <time>2080-10-17T03:16:48.640+02:00</time>
            </trkpt>
            <trkpt lon="19.39845362" lat="45.22376834">
                <ele>80</ele>
                <time>2080-10-17T03:18:03.640+02:00</time>
            </trkpt>
            <trkpt lon="19.40010667" lat="45.22398973">
                <ele>79</ele>
                <time>2080-10-17T03:18:47.640+02:00</time>
            </trkpt>
            <trkpt lon="19.40024917" lat="45.22409195">
                <ele>79</ele>
                <time>2080-10-17T03:18:51.640+02:00</time>
            </trkpt>
            <trkpt lon="19.40070278" lat="45.22658945">
                <ele>76</ele>
                <time>2080-10-17T03:19:39.640+02:00</time>
            </trkpt>
            <trkpt lon="19.40119417" lat="45.22947695">
                <ele>78</ele>
                <time>2080-10-17T03:20:34.640+02:00</time>
            </trkpt>
            <trkpt lon="19.40146778" lat="45.23246250">
                <ele>73</ele>
                <time>2080-10-17T03:21:30.640+02:00</time>
            </trkpt>
            <trkpt lon="19.40182639" lat="45.23598862">
                <ele>74</ele>
                <time>2080-10-17T03:22:36.640+02:00</time>
            </trkpt>
            <trkpt lon="19.40190278" lat="45.23626723">
                <ele>74</ele>
                <time>2080-10-17T03:22:41.640+02:00</time>
            </trkpt>
            <trkpt lon="19.40205362" lat="45.23646084">
                <ele>74</ele>
                <time>2080-10-17T03:22:46.640+02:00</time>
            </trkpt>
            <trkpt lon="19.40205362" lat="45.23646084">
                <ele>74</ele>
                <time>2080-10-17T03:22:46.640+02:00</time>
            </trkpt>
            <trkpt lon="19.40198250" lat="45.23695862">
                <ele>78</ele>
                <time>2080-10-17T03:22:56.640+02:00</time>
            </trkpt>
            <trkpt lon="19.40183028" lat="45.23747917">
                <ele>78</ele>
                <time>2080-10-17T03:23:06.640+02:00</time>
            </trkpt>
            <trkpt lon="19.40148806" lat="45.23785445">
                <ele>76</ele>
                <time>2080-10-17T03:23:17.640+02:00</time>
            </trkpt>
            <trkpt lon="19.39674528" lat="45.24141417">
                <ele>80</ele>
                <time>2080-10-17T03:25:40.640+02:00</time>
            </trkpt>
            <trkpt lon="19.39655639" lat="45.24179362">
                <ele>82</ele>
                <time>2080-10-17T03:25:49.640+02:00</time>
            </trkpt>
            <trkpt lon="19.39610750" lat="45.24249500">
                <ele>82</ele>
                <time>2080-10-17T03:26:06.640+02:00</time>
            </trkpt>
            <trkpt lon="19.39610750" lat="45.24249500">
                <ele>82</ele>
                <time>2080-10-17T03:26:06.640+02:00</time>
            </trkpt>
            <trkpt lon="19.39629389" lat="45.24684000">
                <ele>78</ele>
                <time>2080-10-17T03:27:27.640+02:00</time>
            </trkpt>
            <trkpt lon="19.39654639" lat="45.24977862">
                <ele>81</ele>
                <time>2080-10-17T03:28:22.640+02:00</time>
            </trkpt>
            <trkpt lon="19.39697278" lat="45.24974195">
                <ele>82</ele>
                <time>2080-10-17T03:28:33.640+02:00</time>
            </trkpt>
            <trkpt lon="19.40184556" lat="45.24960001">
                <ele>82</ele>
                <time>2080-10-17T03:30:42.640+02:00</time>
            </trkpt>
            <trkpt lon="19.40931362" lat="45.24926501">
                <ele>78</ele>
                <time>2080-10-17T03:34:00.640+02:00</time>
            </trkpt>
            <trkpt lon="19.41810417" lat="45.24896750">
                <ele>78</ele>
                <time>2080-10-17T03:37:53.640+02:00</time>
            </trkpt>
            <trkpt lon="19.42490389" lat="45.24871528">
                <ele>76</ele>
                <time>2080-10-17T03:40:53.640+02:00</time>
            </trkpt>
        </trkseg>
    </trk>
</gpx>
